Time;durP1;ratioP1;P1;durP2;ratioP2;P2;SDS_P1;SDS_P2;PMS_P1;PMS_P2;Temp;Humidity;BMP_temperature;BMP_pressure;BME280_temperature;BME280_humidity;BME280_pressure;Samples;Min_cycle;Max_cycle;Signal;HPM_P1;HPM_P2
2022/04/09 00:00:53;;;;;;;;;;;2.90;99.90;;;;;;4977517;28;19973;-82
2022/04/09 00:03:20;;;;;;;;;;;3.10;99.90;;;;;;4977481;28;19976;-84
2022/04/09 00:05:46;;;;;;;;;;;2.40;99.90;;;;;;4977282;28;19926;-82
2022/04/09 00:08:14;;;;;;;;;;;2.80;99.90;;;;;;4977317;28;20006;-83
2022/04/09 00:10:40;;;;;;;;;;;2.80;99.90;;;;;;4977215;28;20036;-82
2022/04/09 00:13:07;;;;;;;;;;;2.40;99.90;;;;;;4976964;28;20015;-82
2022/04/09 00:15:34;;;;;;;;;;;2.70;99.90;;;;;;4976936;28;19926;-82
2022/04/09 00:18:02;;;;;;;;;;;2.60;99.90;;;;;;4977165;28;19958;-83
2022/04/09 00:20:29;;;;;;;;;;;2.60;99.90;;;;;;4976765;28;19982;-83
2022/04/09 00:22:55;;;;;;;;;;;3.00;99.90;;;;;;4976675;28;20439;-82
2022/04/09 00:25:24;;;;;;;;;;;2.50;99.90;;;;;;4977065;28;19926;-83
2022/04/09 00:27:50;;;;;;;;;;;2.00;99.90;;;;;;4976933;28;19948;-82
2022/04/09 00:30:17;;;;;;;;;;;2.40;99.90;;;;;;4976675;28;20376;-83
2022/04/09 00:32:44;;;;;;;;;;;2.40;99.90;;;;;;4976511;28;19954;-81
2022/04/09 00:35:12;;;;;;;;;;;2.40;99.90;;;;;;4976646;28;19973;-83
2022/04/09 00:37:43;;;;;;;;;;;2.40;99.90;;;;;;4976431;28;19989;-82
2022/04/09 00:40:11;;;;;;;;;;;2.30;99.90;;;;;;4976441;28;19927;-82
2022/04/09 00:42:38;;;;;;;;;;;2.30;99.90;;;;;;4976610;28;19927;-82
2022/04/09 00:45:05;;;;;;;;;;;2.20;99.90;;;;;;4976234;28;20388;-82
2022/04/09 00:47:32;;;;;;;;;;;2.20;99.90;;;;;;4976425;28;19926;-82
2022/04/09 00:49:58;;;;;;;;;;;2.10;99.90;;;;;;4976511;28;19933;-82
2022/04/09 00:52:27;;;;;;;;;;;2.10;99.90;;;;;;4976081;28;20372;-81
2022/04/09 00:54:55;;;;;;;;;;;2.10;99.90;;;;;;4976113;28;19926;-83
2022/04/09 00:57:25;;;;;;;;;;;2.10;99.90;;;;;;4975936;28;20364;-83
2022/04/09 00:59:52;;;;;;;;;;;2.10;99.90;;;;;;4975840;28;19926;-83
2022/04/09 01:02:19;;;;;;;;;;;2.10;99.90;;;;;;4976018;28;19985;-83
2022/04/09 01:04:47;;;;;;;;;;;2.00;99.90;;;;;;4976137;28;19977;-83
2022/04/09 01:07:14;;;;;;;;;;;2.20;99.90;;;;;;4988204;28;20291;-82
2022/04/09 01:09:44;;;;;;;;;;;2.30;99.90;;;;;;4995296;28;19965;-81
2022/04/09 01:12:11;;;;;;;;;;;2.30;99.90;;;;;;4995358;28;20000;-83
2022/04/09 01:14:38;;;;;;;;;;;2.30;99.90;;;;;;4994806;28;19950;-83
2022/04/09 01:17:05;;;;;;;;;;;2.30;99.90;;;;;;4995047;28;19980;-82
2022/04/09 01:19:32;;;;;;;;;;;2.20;99.90;;;;;;4994669;28;19984;-82
2022/04/09 01:22:00;;;;;;;;;;;2.20;99.90;;;;;;4995013;28;19980;-82
2022/04/09 01:24:27;;;;;;;;;;;2.10;99.90;;;;;;4994754;28;19925;-83
2022/04/09 01:26:54;;;;;;;;;;;2.10;99.90;;;;;;4995030;28;19976;-81
2022/04/09 01:29:21;;;;;;;;;;;2.00;99.90;;;;;;4994896;28;19976;-84
2022/04/09 01:31:47;;;;;;;;;;;2.10;99.90;;;;;;4994880;28;20364;-83
2022/04/09 01:34:14;;;;;;;;;;;2.10;99.90;;;;;;4994791;28;19977;-83
2022/04/09 01:36:41;;;;;;;;;;;2.00;99.90;;;;;;4994610;28;20024;-83
2022/04/09 01:39:09;;;;;;;;;;;2.00;99.90;;;;;;4994337;28;19930;-84
2022/04/09 01:41:36;;;;;;;;;;;2.00;99.90;;;;;;4994394;28;20400;-83
2022/04/09 01:44:03;;;;;;;;;;;2.00;99.90;;;;;;4994486;28;20364;-84
2022/04/09 01:46:30;;;;;;;;;;;2.10;99.90;;;;;;4995276;28;19989;-83
2022/04/09 01:48:57;;;;;;;;;;;2.10;99.90;;;;;;4995043;28;19926;-83
2022/04/09 01:51:24;;;;;;;;;;;2.10;99.90;;;;;;4994484;28;19969;-84
2022/04/09 01:53:50;;;;;;;;;;;2.10;99.90;;;;;;4994814;28;19955;-82
2022/04/09 01:56:18;;;;;;;;;;;1.70;99.90;;;;;;4994226;28;19968;-83
2022/04/09 01:58:45;;;;;;;;;;;2.10;99.90;;;;;;4994149;28;20434;-83
2022/04/09 02:01:12;;;;;;;;;;;2.20;99.90;;;;;;4994621;28;19930;-83
2022/04/09 02:03:38;;;;;;;;;;;2.30;99.90;;;;;;4994351;28;20036;-82
2022/04/09 02:06:05;;;;;;;;;;;2.20;99.90;;;;;;4993941;28;20379;-82
2022/04/09 02:08:32;;;;;;;;;;;2.30;99.90;;;;;;4995010;28;19980;-82
2022/04/09 02:10:59;;;;;;;;;;;2.20;99.90;;;;;;4994701;28;19933;-82
2022/04/09 02:13:27;;;;;;;;;;;2.40;99.90;;;;;;4994812;28;20404;-82
2022/04/09 02:15:53;;;;;;;;;;;2.40;99.90;;;;;;4994544;28;19976;-81
2022/04/09 02:18:20;;;;;;;;;;;2.40;99.90;;;;;;4994380;28;19929;-83
2022/04/09 02:20:47;;;;;;;;;;;2.40;99.90;;;;;;4994588;28;20328;-83
2022/04/09 02:23:14;;;;;;;;;;;2.30;99.90;;;;;;4994750;28;19973;-83
2022/04/09 02:25:41;;;;;;;;;;;2.30;99.90;;;;;;4994456;28;19949;-83
2022/04/09 02:28:07;;;;;;;;;;;2.40;99.90;;;;;;4994577;28;19973;-82
2022/04/09 02:30:35;;;;;;;;;;;2.20;99.90;;;;;;4994360;28;19980;-82
2022/04/09 02:33:02;;;;;;;;;;;2.20;99.90;;;;;;4994617;28;19973;-83
2022/04/09 02:35:29;;;;;;;;;;;2.10;99.90;;;;;;4994451;28;19961;-83
2022/04/09 02:37:56;;;;;;;;;;;2.10;99.90;;;;;;4994407;28;19925;-83
2022/04/09 02:40:24;;;;;;;;;;;2.10;99.90;;;;;;4994156;28;20398;-83
2022/04/09 02:42:51;;;;;;;;;;;2.10;99.90;;;;;;4994535;28;19926;-82
2022/04/09 02:45:17;;;;;;;;;;;2.20;99.90;;;;;;4994594;28;20339;-82
2022/04/09 02:47:45;;;;;;;;;;;2.30;99.90;;;;;;4994014;28;19976;-83
2022/04/09 02:50:13;;;;;;;;;;;2.30;99.90;;;;;;4994339;28;19926;-83
2022/04/09 02:52:40;;;;;;;;;;;2.40;99.90;;;;;;4994394;28;19984;-82
2022/04/09 02:55:08;;;;;;;;;;;2.40;99.90;;;;;;4994070;28;19973;-82
2022/04/09 02:57:36;;;;;;;;;;;2.40;99.90;;;;;;4996579;28;20412;-82
2022/04/09 03:00:05;;;;;;;;;;;2.50;99.90;;;;;;4998279;28;19932;-83
2022/04/09 03:02:31;;;;;;;;;;;2.60;99.90;;;;;;4997968;28;20423;-82
2022/04/09 03:05:00;;;;;;;;;;;2.50;99.90;;;;;;4998243;28;19933;-82
2022/04/09 03:07:28;;;;;;;;;;;2.50;99.90;;;;;;4997802;28;19930;-82
2022/04/09 03:09:54;;;;;;;;;;;2.50;99.90;;;;;;4997836;28;19980;-83
2022/04/09 03:12:21;;;;;;;;;;;2.40;99.90;;;;;;4997725;28;20418;-83
2022/04/09 03:14:48;;;;;;;;;;;2.40;99.90;;;;;;4997996;28;19973;-82
2022/04/09 03:17:14;;;;;;;;;;;2.40;99.90;;;;;;4998085;28;19926;-83
2022/04/09 03:19:41;;;;;;;;;;;2.50;99.90;;;;;;4997730;28;19971;-82
2022/04/09 03:22:09;;;;;;;;;;;2.50;99.90;;;;;;4997785;28;19985;-82
2022/04/09 03:24:36;;;;;;;;;;;2.40;99.90;;;;;;4997572;28;19969;-83
2022/04/09 03:27:03;;;;;;;;;;;2.90;99.90;;;;;;4996358;28;19976;-82
2022/04/09 03:29:29;;;;;;;;;;;2.80;99.90;;;;;;4997762;28;20024;-81
2022/04/09 03:31:57;;;;;;;;;;;2.80;99.90;;;;;;4997725;28;19980;-83
2022/04/09 03:34:24;;;;;;;;;;;2.90;99.90;;;;;;4997624;28;19934;-84
2022/04/09 03:36:50;;;;;;;;;;;2.80;99.90;;;;;;4997387;28;19961;-83
2022/04/09 03:39:18;;;;;;;;;;;2.70;99.90;;;;;;4997173;28;20391;-84
2022/04/09 03:41:45;;;;;;;;;;;2.80;99.90;;;;;;4997553;28;19973;-84
2022/04/09 03:44:12;;;;;;;;;;;2.80;99.90;;;;;;4997535;28;19929;-82
2022/04/09 03:46:39;;;;;;;;;;;2.90;99.90;;;;;;4997129;28;19969;-83
2022/04/09 03:49:05;;;;;;;;;;;3.00;99.90;;;;;;4997344;28;19926;-83
2022/04/09 03:51:32;;;;;;;;;;;3.20;99.90;;;;;;4997246;28;20372;-82
2022/04/09 03:53:59;;;;;;;;;;;3.30;99.90;;;;;;4997084;28;19949;-83
2022/04/09 03:56:27;;;;;;;;;;;3.40;99.90;;;;;;4997137;28;19969;-83
2022/04/09 03:58:54;;;;;;;;;;;3.40;99.90;;;;;;4997247;28;19976;-82
2022/04/09 04:01:24;;;;;;;;;;;3.50;99.90;;;;;;4989752;28;20307;-83
2022/04/09 04:03:51;;;;;;;;;;;3.50;99.90;;;;;;4977434;28;19926;-83
2022/04/09 04:06:17;;;;;;;;;;;5.10;99.90;;;;;;4977221;28;19981;-83
2022/04/09 04:08:44;;;;;;;;;;;3.80;99.90;;;;;;4976940;28;19985;-83
2022/04/09 04:11:11;;;;;;;;;;;3.70;99.90;;;;;;4976870;28;20380;-82
2022/04/09 04:13:39;;;;;;;;;;;3.70;99.90;;;;;;4977102;28;19980;-82
2022/04/09 04:16:06;;;;;;;;;;;3.70;99.90;;;;;;4976678;28;20336;-83
2022/04/09 04:18:33;;;;;;;;;;;3.70;99.90;;;;;;4976906;28;19980;-84
2022/04/09 04:20:59;;;;;;;;;;;3.60;99.90;;;;;;4976845;28;19972;-83
2022/04/09 04:23:26;;;;;;;;;;;3.60;99.90;;;;;;4976756;28;19973;-83
2022/04/09 04:25:53;;;;;;;;;;;3.50;99.90;;;;;;4977061;28;19980;-83
2022/04/09 04:28:19;;;;;;;;;;;3.40;99.90;;;;;;4977115;28;19965;-83
2022/04/09 04:30:47;;;;;;;;;;;3.40;99.90;;;;;;4977093;28;19969;-84
2022/04/09 04:33:14;;;;;;;;;;;3.30;99.90;;;;;;4977272;28;19970;-84
2022/04/09 04:35:41;;;;;;;;;;;3.30;99.90;;;;;;4985342;28;19973;-83
2022/04/09 04:38:07;;;;;;;;;;;3.20;99.90;;;;;;4996256;28;19957;-83
2022/04/09 04:40:34;;;;;;;;;;;3.20;99.90;;;;;;4996503;28;20096;-83
2022/04/09 04:43:01;;;;;;;;;;;3.20;99.90;;;;;;4996537;28;19973;-82
2022/04/09 04:45:28;;;;;;;;;;;3.10;99.90;;;;;;4996288;28;19974;-83
2022/04/09 04:47:56;;;;;;;;;;;3.10;99.90;;;;;;4996091;28;20410;-83
2022/04/09 04:50:23;;;;;;;;;;;3.10;99.90;;;;;;4996215;28;20477;-82
2022/04/09 04:52:50;;;;;;;;;;;3.10;99.90;;;;;;4996031;28;19980;-83
2022/04/09 04:55:16;;;;;;;;;;;3.20;99.90;;;;;;4996386;28;19980;-83
2022/04/09 04:57:44;;;;;;;;;;;3.20;99.90;;;;;;4996197;28;19926;-83
2022/04/09 05:00:11;;;;;;;;;;;2.80;99.90;;;;;;4996193;28;19933;-82
2022/04/09 05:02:38;;;;;;;;;;;3.20;99.90;;;;;;4996050;28;19969;-81
2022/04/09 05:05:07;;;;;;;;;;;3.30;99.90;;;;;;4995867;28;20431;-81
2022/04/09 05:07:37;;;;;;;;;;;2.50;99.90;;;;;;4995706;28;19926;-83
2022/04/09 05:10:04;;;;;;;;;;;3.50;99.90;;;;;;4995597;28;20377;-83
2022/04/09 05:12:33;;;;;;;;;;;3.50;99.90;;;;;;4996012;28;19926;-82
2022/04/09 05:14:59;;;;;;;;;;;3.50;99.90;;;;;;4995912;28;20031;-82
2022/04/09 05:17:26;;;;;;;;;;;3.50;99.90;;;;;;4995469;28;19925;-81
2022/04/09 05:19:53;;;;;;;;;;;3.60;99.90;;;;;;4994720;28;19925;-83
2022/04/09 05:22:21;;;;;;;;;;;3.60;99.90;;;;;;4995455;28;19969;-83
2022/04/09 05:24:47;;;;;;;;;;;3.60;99.90;;;;;;4995262;28;20372;-82
2022/04/09 05:27:15;;;;;;;;;;;3.60;99.90;;;;;;4995866;28;19926;-82
2022/04/09 05:29:41;;;;;;;;;;;3.50;99.90;;;;;;4995372;28;20370;-82
2022/04/09 05:32:08;;;;;;;;;;;3.60;99.90;;;;;;4995204;28;19976;-82
2022/04/09 05:34:35;;;;;;;;;;;3.70;99.90;;;;;;4994935;28;20276;-82
2022/04/09 05:37:02;;;;;;;;;;;3.50;99.90;;;;;;4995526;28;19976;-82
2022/04/09 05:39:30;;;;;;;;;;;3.70;99.90;;;;;;4995125;28;19969;-81
2022/04/09 05:41:57;;;;;;;;;;;3.80;99.90;;;;;;4995621;28;19968;-83
2022/04/09 05:44:23;;;;;;;;;;;3.70;99.90;;;;;;4995465;28;19926;-81
2022/04/09 05:46:50;;;;;;;;;;;3.80;99.90;;;;;;4995023;28;19983;-82
2022/04/09 05:49:18;;;;;;;;;;;3.80;99.90;;;;;;4995230;28;19980;-82
2022/04/09 05:51:44;;;;;;;;;;;3.80;99.90;;;;;;4995032;28;19929;-82
2022/04/09 05:54:11;;;;;;;;;;;3.80;99.90;;;;;;4995225;28;19975;-82
2022/04/09 05:56:39;;;;;;;;;;;3.80;99.90;;;;;;4995327;28;20328;-83
2022/04/09 05:59:06;;;;;;;;;;;3.90;99.90;;;;;;4995024;28;19980;-82
2022/04/09 06:01:34;;;;;;;;;;;3.90;99.90;;;;;;4994894;28;19930;-82
2022/04/09 06:04:01;;;;;;;;;;;3.90;99.90;;;;;;4995126;28;20309;-82
2022/04/09 06:06:28;;;;;;;;;;;3.70;99.90;;;;;;4994516;28;19926;-82
2022/04/09 06:08:54;;;;;;;;;;;4.10;99.90;;;;;;4994876;28;19961;-81
2022/04/09 06:11:22;;;;;;;;;;;4.20;99.90;;;;;;4994772;28;20369;-82
2022/04/09 06:13:50;;;;;;;;;;;4.20;99.90;;;;;;4994314;28;20795;-82
2022/04/09 06:16:17;;;;;;;;;;;4.20;99.90;;;;;;4994873;28;19926;-82
2022/04/09 06:18:43;;;;;;;;;;;4.20;99.90;;;;;;4994669;28;20122;-82
2022/04/09 06:21:10;;;;;;;;;;;4.20;99.90;;;;;;4994510;28;20344;-82
2022/04/09 06:23:37;;;;;;;;;;;4.20;99.90;;;;;;4994649;28;19969;-83
2022/04/09 06:26:04;;;;;;;;;;;4.20;99.90;;;;;;4994262;28;20712;-82
2022/04/09 06:28:31;;;;;;;;;;;4.30;99.90;;;;;;4994309;28;19969;-82
2022/04/09 06:30:59;;;;;;;;;;;4.30;99.90;;;;;;4994193;28;19929;-82
2022/04/09 06:33:26;;;;;;;;;;;4.30;99.90;;;;;;4994094;28;19981;-83
2022/04/09 06:35:53;;;;;;;;;;;3.90;99.90;;;;;;4993546;28;19929;-83
2022/04/09 06:38:20;;;;;;;;;;;4.40;99.90;;;;;;4993289;28;20434;-82
2022/04/09 06:40:46;;;;;;;;;;;4.70;99.90;;;;;;4993703;28;20391;-81
2022/04/09 06:43:13;;;;;;;;;;;4.50;99.90;;;;;;4993462;28;20520;-81
2022/04/09 06:45:40;;;;;;;;;;;4.70;99.90;;;;;;4994537;28;19961;-81
2022/04/09 06:48:08;;;;;;;;;;;4.80;99.90;;;;;;4994004;28;19976;-80
2022/04/09 06:50:35;;;;;;;;;;;4.80;99.90;;;;;;4994028;28;20403;-81
2022/04/09 06:53:02;;;;;;;;;;;4.90;99.90;;;;;;4994188;28;19988;-80
2022/04/09 06:55:28;;;;;;;;;;;5.20;99.90;;;;;;4994293;28;19976;-80
2022/04/09 06:58:00;;;;;;;;;;;5.30;99.90;;;;;;4994149;28;19972;-80
2022/04/09 07:00:27;;;;;;;;;;;5.60;99.90;;;;;;4994171;28;19969;-80
2022/04/09 07:02:53;;;;;;;;;;;5.30;99.90;;;;;;4993953;28;20460;-80
2022/04/09 07:05:22;;;;;;;;;;;5.40;99.90;;;;;;4993847;28;19965;-80
2022/04/09 07:07:49;;;;;;;;;;;5.40;99.90;;;;;;4993956;28;19997;-81
2022/04/09 07:10:16;;;;;;;;;;;5.30;99.90;;;;;;4994328;28;19932;-81
2022/04/09 07:12:43;;;;;;;;;;;5.40;99.90;;;;;;4994005;28;20372;-82
2022/04/09 07:15:10;;;;;;;;;;;5.50;99.90;;;;;;4993709;28;20376;-80
2022/04/09 07:17:37;;;;;;;;;;;5.40;99.90;;;;;;4993726;28;19925;-80
2022/04/09 07:20:05;;;;;;;;;;;5.50;99.90;;;;;;4993701;28;20005;-80
2022/04/09 07:22:34;;;;;;;;;;;5.50;99.90;;;;;;4993890;28;19961;-80
2022/04/09 07:25:00;;;;;;;;;;;5.70;99.90;;;;;;4993891;28;19937;-80
2022/04/09 07:27:37;;;;;;;;;;;5.70;99.90;;;;;;4993818;28;19969;-80
2022/04/09 07:30:04;;;;;;;;;;;5.80;99.90;;;;;;4993442;28;19965;-84
2022/04/09 07:32:31;;;;;;;;;;;5.80;99.90;;;;;;4993799;28;19957;-81
2022/04/09 07:34:58;;;;;;;;;;;6.10;99.90;;;;;;4993587;28;19968;-80
2022/04/09 07:37:24;;;;;;;;;;;6.10;99.90;;;;;;4993675;28;20301;-81
2022/04/09 07:39:53;;;;;;;;;;;6.00;99.90;;;;;;4993404;28;19980;-80
2022/04/09 07:42:20;;;;;;;;;;;6.00;99.90;;;;;;4994523;28;19932;-81
2022/04/09 07:44:47;;;;;;;;;;;6.10;99.90;;;;;;4997286;28;19930;-80
2022/04/09 07:47:14;;;;;;;;;;;6.00;99.90;;;;;;4997379;28;19925;-82
2022/04/09 07:49:44;;;;;;;;;;;6.10;99.90;;;;;;4996972;28;20388;-81
2022/04/09 07:52:10;;;;;;;;;;;6.30;99.90;;;;;;4997703;28;19988;-81
2022/04/09 07:54:37;;;;;;;;;;;6.40;99.90;;;;;;4996657;28;19964;-80
2022/04/09 07:57:06;;;;;;;;;;;6.40;99.90;;;;;;4997173;28;19969;-82
2022/04/09 07:59:32;;;;;;;;;;;6.50;99.90;;;;;;4997324;28;19936;-80
2022/04/09 08:01:59;;;;;;;;;;;6.20;99.90;;;;;;4996731;28;19972;-81
2022/04/09 08:04:26;;;;;;;;;;;7.00;99.90;;;;;;4996326;28;19969;-81
2022/04/09 08:06:53;;;;;;;;;;;6.70;99.90;;;;;;4997121;28;19961;-81
2022/04/09 08:09:19;;;;;;;;;;;6.80;99.90;;;;;;4996826;28;19981;-81
2022/04/09 08:11:46;;;;;;;;;;;6.80;99.90;;;;;;4996741;28;19957;-82
2022/04/09 08:14:15;;;;;;;;;;;7.00;99.90;;;;;;4996947;28;19926;-82
2022/04/09 08:16:41;;;;;;;;;;;7.10;99.90;;;;;;4996854;28;19973;-81
2022/04/09 08:19:08;;;;;;;;;;;7.10;99.90;;;;;;4996909;28;19981;-82
2022/04/09 08:21:35;;;;;;;;;;;7.20;99.90;;;;;;4996148;28;19977;-81
2022/04/09 08:24:02;;;;;;;;;;;7.30;99.90;;;;;;4996710;28;19964;-81
2022/04/09 08:26:28;;;;;;;;;;;7.20;99.90;;;;;;4996699;28;19953;-81
2022/04/09 08:28:56;;;;;;;;;;;7.30;99.90;;;;;;4996959;28;19926;-81
2022/04/09 08:31:24;;;;;;;;;;;7.40;99.90;;;;;;4997216;28;19925;-80
2022/04/09 08:33:51;;;;;;;;;;;7.50;99.90;;;;;;4996030;28;20395;-82
2022/04/09 08:36:18;;;;;;;;;;;7.60;99.90;;;;;;4982995;28;19945;-81
2022/04/09 08:38:44;;;;;;;;;;;7.70;99.90;;;;;;4976393;28;19965;-81
2022/04/09 08:41:14;;;;;;;;;;;7.90;99.90;;;;;;4976708;28;19969;-81
2022/04/09 08:43:41;;;;;;;;;;;7.90;99.90;;;;;;4976712;28;20289;-81
2022/04/09 08:46:07;;;;;;;;;;;7.80;99.90;;;;;;4976821;28;19989;-81
2022/04/09 08:48:36;;;;;;;;;;;7.80;99.90;;;;;;4976376;28;19976;-82
2022/04/09 08:51:03;;;;;;;;;;;7.90;99.90;;;;;;4976620;28;19973;-82
2022/04/09 08:53:30;;;;;;;;;;;7.90;99.90;;;;;;4976912;28;19969;-81
2022/04/09 08:55:57;;;;;;;;;;;8.00;99.90;;;;;;4975171;28;20423;-82
2022/04/09 08:58:23;;;;;;;;;;;8.10;99.90;;;;;;4976399;28;19962;-81
2022/04/09 09:00:50;;;;;;;;;;;8.30;99.90;;;;;;4975585;28;19965;-83
2022/04/09 09:03:17;;;;;;;;;;;8.20;99.70;;;;;;4975882;28;19981;-82
2022/04/09 09:05:48;;;;;;;;;;;8.10;99.90;;;;;;4975639;28;19926;-82
2022/04/09 09:08:15;;;;;;;;;;;8.20;99.90;;;;;;4977637;28;20380;-82
2022/04/09 09:10:42;;;;;;;;;;;8.20;99.90;;;;;;4976651;28;19926;-82
2022/04/09 09:13:09;;;;;;;;;;;8.30;99.90;;;;;;4976027;28;19933;-82
2022/04/09 09:15:45;;;;;;;;;;;8.60;99.60;;;;;;4976555;28;19926;-82
2022/04/09 09:18:18;;;;;;;;;;;8.50;99.50;;;;;;4976247;28;19981;-81
2022/04/09 09:20:49;;;;;;;;;;;8.40;99.40;;;;;;4975936;28;19984;-81
2022/04/09 09:23:20;;;;;;;;;;;8.50;99.10;;;;;;4975997;28;19932;-82
2022/04/09 09:25:48;;;;;;;;;;;8.30;97.30;;;;;;4975930;28;20384;-82
2022/04/09 09:28:22;;;;;;;;;;;8.20;98.60;;;;;;4975658;28;20380;-82
2022/04/09 09:30:51;;;;;;;;;;;8.30;99.30;;;;;;4975637;28;20412;-83
2022/04/09 09:33:18;;;;;;;;;;;8.50;97.80;;;;;;4975577;28;19934;-81
2022/04/09 09:35:54;;;;;;;;;;;8.60;97.60;;;;;;4984751;28;20501;-81
2022/04/09 09:38:21;;;;;;;;;;;8.60;97.20;;;;;;4994729;28;19933;-82
2022/04/09 09:40:48;;;;;;;;;;;8.40;98.70;;;;;;4994758;28;19926;-82
2022/04/09 09:43:15;;;;;;;;;;;8.00;99.30;;;;;;4994788;28;19969;-81
2022/04/09 09:45:42;;;;;;;;;;;7.90;98.90;;;;;;4994569;28;19984;-82
2022/04/09 09:48:19;;;;;;;;;;;7.50;98.80;;;;;;4995089;28;19968;-82
2022/04/09 09:50:46;;;;;;;;;;;7.90;99.60;;;;;;4995187;28;19996;-81
2022/04/09 09:53:14;;;;;;;;;;;7.80;99.90;;;;;;4995329;28;20036;-80
2022/04/09 09:55:44;;;;;;;;;;;7.80;99.90;;;;;;4994857;28;20376;-81
2022/04/09 09:58:13;;;;;;;;;;;8.00;99.90;;;;;;4994991;28;19930;-83
2022/04/09 10:00:40;;;;;;;;;;;8.00;99.90;;;;;;4994081;28;19988;-82
2022/04/09 10:03:09;;;;;;;;;;;8.10;99.90;;;;;;4994599;28;19976;-80
2022/04/09 10:05:38;;;;;;;;;;;8.20;99.90;;;;;;4994656;28;19933;-81
2022/04/09 10:08:05;;;;;;;;;;;8.10;99.90;;;;;;4994299;28;19972;-82
2022/04/09 10:10:35;;;;;;;;;;;8.00;99.90;;;;;;4994511;28;19972;-82
2022/04/09 10:13:02;;;;;;;;;;;8.20;99.90;;;;;;4996450;28;19957;-81
2022/04/09 10:15:29;;;;;;;;;;;8.50;99.70;;;;;;4997575;28;19926;-81
2022/04/09 10:17:58;;;;;;;;;;;8.30;98.70;;;;;;4994509;28;19926;-81
2022/04/09 10:20:25;;;;;;;;;;;8.40;98.60;;;;;;4994661;28;20328;-81
2022/04/09 10:22:53;;;;;;;;;;;7.80;98.00;;;;;;4993914;28;19971;-81
2022/04/09 10:25:20;;;;;;;;;;;8.60;97.70;;;;;;4993769;28;19938;-82
2022/04/09 10:27:53;;;;;;;;;;;8.60;97.00;;;;;;4994057;28;20376;-82
2022/04/09 10:30:20;;;;;;;;;;;8.80;96.40;;;;;;4993807;28;20451;-82
2022/04/09 10:32:48;;;;;;;;;;;8.70;96.30;;;;;;4994216;28;19925;-81
2022/04/09 10:35:28;;;;;;;;;;;8.80;96.30;;;;;;4993987;28;19932;-81
2022/04/09 10:38:13;;;;;;;;;;;8.30;96.10;;;;;;4994784;28;19961;-81
2022/04/09 10:40:56;;;;;;;;;;;8.90;96.10;;;;;;4993935;28;19951;-81
2022/04/09 10:43:37;;;;;;;;;;;8.80;96.60;;;;;;4995562;28;19926;-81
2022/04/09 10:46:21;;;;;;;;;;;8.90;96.50;;;;;;4993879;28;19925;-82
2022/04/09 10:48:48;;;;;;;;;;;8.90;96.70;;;;;;4993001;28;19933;-80
2022/04/09 10:51:15;;;;;;;;;;;8.80;96.40;;;;;;4988186;28;19953;-82
2022/04/09 10:53:42;;;;;;;;;;;8.40;96.90;;;;;;4981298;28;20419;-80
2022/04/09 10:56:21;;;;;;;;;;;8.60;97.20;;;;;;4983858;28;19980;-82
2022/04/09 10:59:02;;;;;;;;;;;8.90;97.50;;;;;;4992836;28;20063;-82
2022/04/09 11:01:48;;;;;;;;;;;8.70;97.30;;;;;;4989931;28;19987;-82
2022/04/09 11:04:34;;;;;;;;;;;9.40;97.40;;;;;;4991288;28;20003;-81
2022/04/09 11:07:03;;;;;;;;;;;9.40;97.30;;;;;;4978340;28;19953;-82
2022/04/09 11:09:41;;;;;;;;;;;9.30;97.90;;;;;;4982818;28;19992;-82
2022/04/09 11:12:08;;;;;;;;;;;9.20;98.40;;;;;;4984818;28;19972;-81
2022/04/09 11:14:42;;;;;;;;;;;9.00;99.30;;;;;;4991532;28;19957;-83
2022/04/09 11:17:15;;;;;;;;;;;8.90;99.80;;;;;;4993365;28;19925;-81
2022/04/09 11:19:42;;;;;;;;;;;8.70;99.90;;;;;;4996363;28;19965;-83
2022/04/09 11:22:10;;;;;;;;;;;7.70;99.90;;;;;;4996200;28;20399;-81
2022/04/09 11:24:37;;;;;;;;;;;8.60;99.90;;;;;;4994685;28;20372;-82
2022/04/09 11:27:04;;;;;;;;;;;8.60;99.90;;;;;;4995154;28;20462;-81
2022/04/09 11:29:34;;;;;;;;;;;8.60;99.90;;;;;;4992757;28;20323;-81
2022/04/09 11:32:01;;;;;;;;;;;8.60;99.90;;;;;;4996293;28;20000;-81
2022/04/09 11:34:28;;;;;;;;;;;8.70;99.90;;;;;;4995772;28;20261;-81
2022/04/09 11:40:05;;;;;;;;;;;8.50;99.90;;;;;;5109692;27;19927;-82
2022/04/09 11:42:42;;;;;;;;;;;8.30;99.90;;;;;;5109090;28;19938;-86
2022/04/09 11:45:16;;;;;;;;;;;8.20;99.90;;;;;;5109543;28;19971;-83
2022/04/09 11:47:43;;;;;;;;;;;8.40;99.90;;;;;;5110355;28;19992;-83
2022/04/09 11:50:12;;;;;;;;;;;8.40;99.90;;;;;;5110913;28;19924;-84
2022/04/09 11:52:38;;;;;;;;;;;8.20;99.90;;;;;;5111139;28;19979;-83
2022/04/09 11:55:10;;;;;;;;;;;8.00;99.90;;;;;;5110849;28;19924;-84
2022/04/09 11:57:37;;;;;;;;;;;7.50;99.90;;;;;;5109973;28;19946;-84
2022/04/09 12:00:05;;;;;;;;;;;6.50;99.90;;;;;;5110604;28;19928;-82
2022/04/09 12:02:32;;;;;;;;;;;7.10;99.90;;;;;;5109513;28;20007;-82
2022/04/09 12:04:59;;;;;;;;;;;6.80;99.90;;;;;;5111065;28;19935;-81
2022/04/09 12:07:28;;;;;;;;;;;6.70;99.90;;;;;;5097543;28;19946;-82
2022/04/09 12:09:55;;;;;;;;;;;6.80;99.90;;;;;;5108770;28;19928;-82
2022/04/09 12:12:23;;;;;;;;;;;6.70;99.90;;;;;;5109987;28;19931;-83
2022/04/09 12:14:54;;;;;;;;;;;6.80;99.90;;;;;;5110408;28;19923;-83
2022/04/09 12:17:23;;;;;;;;;;;7.00;99.90;;;;;;5110623;28;19978;-83
2022/04/09 12:19:50;;;;;;;;;;;7.40;99.90;;;;;;5112603;28;19968;-83
2022/04/09 12:22:19;;;;;;;;;;;7.60;99.90;;;;;;5110287;28;19977;-83
2022/04/09 12:24:50;;;;;;;;;;;7.80;99.90;;;;;;5110955;28;20469;-83
2022/04/09 12:27:17;;;;;;;;;;;8.00;99.90;;;;;;5110123;28;19931;-82
2022/04/09 12:29:50;;;;;;;;;;;8.10;99.90;;;;;;5111028;28;19928;-82
2022/04/09 12:32:20;;;;;;;;;;;8.20;99.90;;;;;;5110553;28;19924;-82
2022/04/09 12:34:53;;;;;;;;;;;8.40;99.90;;;;;;5110393;28;20402;-83
2022/04/09 12:37:20;;;;;;;;;;;8.60;99.90;;;;;;5110012;28;20434;-82
2022/04/09 12:39:47;;;;;;;;;;;8.70;99.90;;;;;;5109709;28;19950;-80
2022/04/09 12:42:15;;;;;;;;;;;8.70;99.90;;;;;;5110114;28;19924;-81
2022/04/09 12:44:43;;;;;;;;;;;8.70;99.90;;;;;;5109787;28;20015;-80
2022/04/09 12:47:11;;;;;;;;;;;8.80;99.90;;;;;;5110196;28;19928;-82
2022/04/09 12:49:39;;;;;;;;;;;8.90;99.90;;;;;;5106190;28;19928;-81
2022/04/09 12:52:07;;;;;;;;;;;9.20;99.90;;;;;;5096808;28;19924;-82
2022/04/09 12:54:34;;;;;;;;;;;9.30;99.90;;;;;;5095932;28;20431;-82
2022/04/09 12:57:05;;;;;;;;;;;9.10;99.90;;;;;;5098402;28;19924;-81
2022/04/09 12:59:31;;;;;;;;;;;9.10;99.90;;;;;;5096106;28;19960;-81
2022/04/09 13:01:58;;;;;;;;;;;9.30;99.90;;;;;;5095970;28;19924;-81
2022/04/09 13:04:26;;;;;;;;;;;9.20;99.90;;;;;;5096514;28;20331;-81
2022/04/09 13:06:53;;;;;;;;;;;9.10;99.90;;;;;;5096401;28;19970;-81
2022/04/09 13:09:20;;;;;;;;;;;9.00;99.90;;;;;;5095960;28;20386;-81
2022/04/09 13:11:46;;;;;;;;;;;9.00;99.90;;;;;;5096335;28;19982;-81
2022/04/09 13:14:13;;;;;;;;;;;7.70;99.90;;;;;;5095691;28;20366;-81
2022/04/09 13:16:40;;;;;;;;;;;8.90;99.90;;;;;;5095663;28;20017;-80
2022/04/09 13:19:07;;;;;;;;;;;9.00;99.90;;;;;;5096415;28;19993;-81
2022/04/09 13:21:35;;;;;;;;;;;9.10;99.90;;;;;;5095897;28;19928;-81
2022/04/09 13:24:01;;;;;;;;;;;8.90;99.90;;;;;;5095867;28;19974;-80
2022/04/09 13:26:28;;;;;;;;;;;8.50;99.90;;;;;;5095463;28;19924;-81
2022/04/09 13:28:55;;;;;;;;;;;8.90;99.90;;;;;;5095878;28;19974;-81
2022/04/09 13:31:22;;;;;;;;;;;9.20;99.90;;;;;;5095580;28;19959;-81
2022/04/09 13:33:48;;;;;;;;;;;9.50;99.90;;;;;;5095074;28;20404;-81
2022/04/09 13:36:15;;;;;;;;;;;9.50;99.90;;;;;;5095329;28;19963;-81
2022/04/09 13:38:43;;;;;;;;;;;9.40;99.90;;;;;;5095027;28;20328;-81
2022/04/09 13:41:13;;;;;;;;;;;9.40;99.90;;;;;;5095309;28;19978;-81
2022/04/09 13:43:40;;;;;;;;;;;9.90;99.90;;;;;;5094995;28;20382;-81
2022/04/09 13:46:08;;;;;;;;;;;9.80;99.90;;;;;;5094785;28;19955;-81
2022/04/09 13:48:35;;;;;;;;;;;10.10;99.90;;;;;;5094962;28;20381;-81
2022/04/09 13:51:02;;;;;;;;;;;10.00;99.90;;;;;;5094392;28;19974;-81
2022/04/09 13:53:29;;;;;;;;;;;10.00;99.90;;;;;;5094448;28;19963;-81
2022/04/09 13:55:58;;;;;;;;;;;10.00;99.90;;;;;;5094387;28;19977;-81
2022/04/09 13:58:25;;;;;;;;;;;10.00;99.90;;;;;;5096343;28;19953;-80
2022/04/09 14:00:52;;;;;;;;;;;9.80;99.90;;;;;;5094645;28;19928;-83
2022/04/09 14:03:19;;;;;;;;;;;9.60;99.90;;;;;;5094157;28;20386;-81
2022/04/09 14:05:46;;;;;;;;;;;9.20;99.90;;;;;;5095035;28;19982;-80
2022/04/09 14:08:13;;;;;;;;;;;9.40;99.90;;;;;;5095088;28;20344;-81
2022/04/09 14:10:39;;;;;;;;;;;9.40;99.90;;;;;;5095259;28;19931;-81
2022/04/09 14:13:07;;;;;;;;;;;9.40;99.90;;;;;;5094604;28;20354;-80
2022/04/09 14:15:34;;;;;;;;;;;9.40;99.90;;;;;;5094934;28;20370;-81
2022/04/09 14:18:01;;;;;;;;;;;9.40;99.90;;;;;;5095090;28;19924;-80
2022/04/09 14:20:28;;;;;;;;;;;9.60;99.90;;;;;;5094867;28;19924;-81
2022/04/09 14:22:54;;;;;;;;;;;9.70;99.90;;;;;;5094539;28;19966;-81
2022/04/09 14:25:21;;;;;;;;;;;9.70;99.90;;;;;;5095444;28;19950;-82
2022/04/09 14:27:48;;;;;;;;;;;9.50;99.90;;;;;;5094833;28;20455;-80
2022/04/09 14:30:16;;;;;;;;;;;9.60;99.90;;;;;;5095202;28;19959;-83
2022/04/09 14:32:43;;;;;;;;;;;9.50;99.90;;;;;;5094799;28;19984;-80
2022/04/09 14:35:10;;;;;;;;;;;9.80;99.90;;;;;;5094472;28;19970;-80
2022/04/09 14:37:37;;;;;;;;;;;9.80;99.40;;;;;;5094670;28;19924;-80